sensor_id;sensor_type;location;lat;lon;timestamp;pressure;altitude;pressure_sealevel;temperature;humidity
48204;BME280;33994;50.998;5.864;2022-11-20T00:01:49;100763.84;;;2.30;80.55
48204;BME280;33994;50.998;5.864;2022-11-20T00:04:35;100769.97;;;2.37;80.32
48204;BME280;33994;50.998;5.864;2022-11-20T00:07:21;100755.38;;;2.39;79.89
48204;BME280;33994;50.998;5.864;2022-11-20T00:10:06;100753.59;;;2.35;80.56
48204;BME280;33994;50.998;5.864;2022-11-20T00:12:52;100757.13;;;2.40;80.29
48204;BME280;33994;50.998;5.864;2022-11-20T00:15:37;100761.38;;;2.36;80.32
48204;BME280;33994;50.998;5.864;2022-11-20T00:18:23;100759.72;;;2.40;80.41
48204;BME280;33994;50.998;5.864;2022-11-20T00:21:12;100750.25;;;2.42;80.32
48204;BME280;33994;50.998;5.864;2022-11-20T00:23:58;100746.81;;;2.41;80.36
48204;BME280;33994;50.998;5.864;2022-11-20T00:26:44;100748.53;;;2.41;80.25
48204;BME280;33994;50.998;5.864;2022-11-20T00:29:29;100753.69;;;2.41;80.36
48204;BME280;33994;50.998;5.864;2022-11-20T00:32:15;100749.41;;;2.43;80.59
48204;BME280;33994;50.998;5.864;2022-11-20T00:35:00;100746.03;;;2.47;80.46
48204;BME280;33994;50.998;5.864;2022-11-20T00:37:47;100744.38;;;2.51;80.23
48204;BME280;33994;50.998;5.864;2022-11-20T00:40:32;100741.84;;;2.52;80.41
48204;BME280;33994;50.998;5.864;2022-11-20T00:43:17;100735.03;;;2.56;80.46
48204;BME280;33994;50.998;5.864;2022-11-20T00:46:05;100739.28;;;2.54;80.57
48204;BME280;33994;50.998;5.864;2022-11-20T00:48:51;100744.44;;;2.54;80.48
48204;BME280;33994;50.998;5.864;2022-11-20T00:51:37;100746.13;;;2.52;80.73
48204;BME280;33994;50.998;5.864;2022-11-20T00:54:24;100740.13;;;2.51;80.60
48204;BME280;33994;50.998;5.864;2022-11-20T00:57:09;100737.47;;;2.48;80.84
48204;BME280;33994;50.998;5.864;2022-11-20T00:59:55;100734.09;;;2.54;80.57
48204;BME280;33994;50.998;5.864;2022-11-20T01:02:40;100730.66;;;2.53;80.65
48204;BME280;33994;50.998;5.864;2022-11-20T01:05:25;100733.19;;;2.50;80.79
48204;BME280;33994;50.998;5.864;2022-11-20T01:08:11;100726.28;;;2.48;80.68
48204;BME280;33994;50.998;5.864;2022-11-20T01:11:00;100731.47;;;2.51;81.04
48204;BME280;33994;50.998;5.864;2022-11-20T01:13:47;100728.09;;;2.53;81.19
48204;BME280;33994;50.998;5.864;2022-11-20T01:16:35;100734.16;;;2.55;80.94
48204;BME280;33994;50.998;5.864;2022-11-20T01:19:22;100727.28;;;2.56;81.36
48204;BME280;33994;50.998;5.864;2022-11-20T01:22:08;100717.69;;;2.50;81.22
48204;BME280;33994;50.998;5.864;2022-11-20T01:24:53;100716.03;;;2.52;81.41
48204;BME280;33994;50.998;5.864;2022-11-20T01:27:40;100706.63;;;2.57;81.71
48204;BME280;33994;50.998;5.864;2022-11-20T01:30:25;100710.13;;;2.61;81.47
48204;BME280;33994;50.998;5.864;2022-11-20T01:33:11;100702.41;;;2.62;81.34
48204;BME280;33994;50.998;5.864;2022-11-20T01:36:03;100707.59;;;2.64;81.23
48204;BME280;33994;50.998;5.864;2022-11-20T01:38:51;100711.91;;;2.65;81.37
48204;BME280;33994;50.998;5.864;2022-11-20T01:41:36;100715.34;;;2.65;81.55
48204;BME280;33994;50.998;5.864;2022-11-20T01:44:53;100714.47;;;2.63;81.84
48204;BME280;33994;50.998;5.864;2022-11-20T01:47:41;100718.78;;;2.64;81.64
48204;BME280;33994;50.998;5.864;2022-11-20T01:50:29;100708.47;;;2.66;81.73
48204;BME280;33994;50.998;5.864;2022-11-20T01:53:16;100699.00;;;2.65;81.85
48204;BME280;33994;50.998;5.864;2022-11-20T01:56:05;100697.22;;;2.62;81.99
48204;BME280;33994;50.998;5.864;2022-11-20T01:58:56;100698.16;;;2.66;82.06
48204;BME280;33994;50.998;5.864;2022-11-20T02:01:44;100693.78;;;2.60;82.32
48204;BME280;33994;50.998;5.864;2022-11-20T02:04:30;100688.66;;;2.63;82.56
48204;BME280;33994;50.998;5.864;2022-11-20T02:07:16;100692.06;;;2.61;82.74
48204;BME280;33994;50.998;5.864;2022-11-20T02:10:02;100697.28;;;2.64;82.88
48204;BME280;33994;50.998;5.864;2022-11-20T02:12:48;100703.34;;;2.67;82.78
48204;BME280;33994;50.998;5.864;2022-11-20T02:15:51;100699.91;;;2.69;82.99
48204;BME280;33994;50.998;5.864;2022-11-20T02:18:38;100705.16;;;2.73;82.81
48204;BME280;33994;50.998;5.864;2022-11-20T02:21:30;100715.53;;;2.75;82.63
48204;BME280;33994;50.998;5.864;2022-11-20T02:24:21;100725.91;;;2.78;82.51
48204;BME280;33994;50.998;5.864;2022-11-20T02:27:09;100719.03;;;2.78;82.57
48204;BME280;33994;50.998;5.864;2022-11-20T02:29:58;100719.03;;;2.80;82.46
48204;BME280;33994;50.998;5.864;2022-11-20T02:32:46;100707.81;;;2.78;82.34
48204;BME280;33994;50.998;5.864;2022-11-20T02:35:44;100708.59;;;2.74;82.81
48204;BME280;33994;50.998;5.864;2022-11-20T02:38:30;100703.44;;;2.74;83.02
48204;BME280;33994;50.998;5.864;2022-11-20T02:41:17;100701.69;;;2.73;82.99
48204;BME280;33994;50.998;5.864;2022-11-20T02:44:04;100708.56;;;2.71;83.07
48204;BME280;33994;50.998;5.864;2022-11-20T02:46:50;100718.00;;;2.70;83.10
48204;BME280;33994;50.998;5.864;2022-11-20T02:49:35;100713.75;;;2.71;83.21
48204;BME280;33994;50.998;5.864;2022-11-20T02:52:21;100709.41;;;2.70;82.96
48204;BME280;33994;50.998;5.864;2022-11-20T02:55:06;100711.09;;;2.67;82.95
48204;BME280;33994;50.998;5.864;2022-11-20T02:57:54;100710.22;;;2.67;82.85
48204;BME280;33994;50.998;5.864;2022-11-20T03:00:39;100709.41;;;2.70;82.98
48204;BME280;33994;50.998;5.864;2022-11-20T03:03:25;100704.22;;;2.68;83.06
48204;BME280;33994;50.998;5.864;2022-11-20T03:06:10;100705.88;;;2.64;83.21
48204;BME280;33994;50.998;5.864;2022-11-20T03:08:56;100701.50;;;2.59;83.14
48204;BME280;33994;50.998;5.864;2022-11-20T03:11:41;100696.31;;;2.57;83.43
48204;BME280;33994;50.998;5.864;2022-11-20T03:14:28;100704.00;;;2.54;83.09
48204;BME280;33994;50.998;5.864;2022-11-20T03:17:14;100703.16;;;2.55;83.19
48204;BME280;33994;50.998;5.864;2022-11-20T03:20:00;100704.94;;;2.59;83.22
48204;BME280;33994;50.998;5.864;2022-11-20T03:22:46;100705.88;;;2.63;83.12
48204;BME280;33994;50.998;5.864;2022-11-20T03:25:32;100711.03;;;2.63;83.41
48204;BME280;33994;50.998;5.864;2022-11-20T03:28:17;100714.47;;;2.63;83.34
48204;BME280;33994;50.998;5.864;2022-11-20T03:31:09;100710.19;;;2.64;83.17
48204;BME280;33994;50.998;5.864;2022-11-20T03:33:55;100709.25;;;2.60;83.28
48204;BME280;33994;50.998;5.864;2022-11-20T03:36:42;100706.63;;;2.57;83.35
48204;BME280;33994;50.998;5.864;2022-11-20T03:39:28;100701.47;;;2.56;83.26
48204;BME280;33994;50.998;5.864;2022-11-20T03:42:13;100693.63;;;2.51;82.92
48204;BME280;33994;50.998;5.864;2022-11-20T03:45:13;100692.75;;;2.51;82.79
48204;BME280;33994;50.998;5.864;2022-11-20T03:48:00;100686.66;;;2.47;82.97
48204;BME280;33994;50.998;5.864;2022-11-20T03:50:45;100686.66;;;2.46;82.48
48204;BME280;33994;50.998;5.864;2022-11-20T03:53:31;100673.72;;;2.44;82.31
48204;BME280;33994;50.998;5.864;2022-11-20T03:56:19;100687.44;;;2.41;82.56
48204;BME280;33994;50.998;5.864;2022-11-20T03:59:05;100685.69;;;2.39;82.73
48204;BME280;33994;50.998;5.864;2022-11-20T04:01:51;100694.25;;;2.36;83.02
48204;BME280;33994;50.998;5.864;2022-11-20T04:04:38;100686.47;;;2.35;83.17
48204;BME280;33994;50.998;5.864;2022-11-20T04:07:24;100676.22;;;2.38;83.38
48204;BME280;33994;50.998;5.864;2022-11-20T04:10:09;100688.38;;;2.45;83.05
48204;BME280;33994;50.998;5.864;2022-11-20T04:12:54;100678.91;;;2.44;83.15
48204;BME280;33994;50.998;5.864;2022-11-20T04:15:40;100684.88;;;2.43;83.06
48204;BME280;33994;50.998;5.864;2022-11-20T04:18:25;100677.13;;;2.40;83.12
48204;BME280;33994;50.998;5.864;2022-11-20T04:21:12;100682.22;;;2.38;83.25
48204;BME280;33994;50.998;5.864;2022-11-20T04:23:57;100672.75;;;2.36;83.22
48204;BME280;33994;50.998;5.864;2022-11-20T04:26:43;100672.75;;;2.36;83.27
48204;BME280;33994;50.998;5.864;2022-11-20T04:29:28;100679.59;;;2.34;83.25
48204;BME280;33994;50.998;5.864;2022-11-20T04:32:14;100680.44;;;2.33;83.39
48204;BME280;33994;50.998;5.864;2022-11-20T04:34:59;100680.38;;;2.28;83.81
48204;BME280;33994;50.998;5.864;2022-11-20T04:37:46;100679.47;;;2.28;83.22
48204;BME280;33994;50.998;5.864;2022-11-20T04:40:31;100685.47;;;2.27;83.18
48204;BME280;33994;50.998;5.864;2022-11-20T04:43:18;100682.09;;;2.29;83.38
48204;BME280;33994;50.998;5.864;2022-11-20T04:46:03;100675.22;;;2.31;83.58
48204;BME280;33994;50.998;5.864;2022-11-20T04:48:48;100671.81;;;2.32;83.27
48204;BME280;33994;50.998;5.864;2022-11-20T04:51:33;100668.41;;;2.33;82.85
48204;BME280;33994;50.998;5.864;2022-11-20T04:54:20;100672.66;;;2.31;82.76
48204;BME280;33994;50.998;5.864;2022-11-20T04:57:06;100684.63;;;2.28;82.90
48204;BME280;33994;50.998;5.864;2022-11-20T04:59:51;100674.38;;;2.31;83.42
48204;BME280;33994;50.998;5.864;2022-11-20T05:02:36;100677.88;;;2.34;83.50
48204;BME280;33994;50.998;5.864;2022-11-20T05:05:22;100678.78;;;2.39;83.48
48204;BME280;33994;50.998;5.864;2022-11-20T05:08:07;100673.75;;;2.47;83.60
48204;BME280;33994;50.998;5.864;2022-11-20T05:10:54;100674.66;;;2.49;83.57
48204;BME280;33994;50.998;5.864;2022-11-20T05:13:39;100672.94;;;2.48;83.59
48204;BME280;33994;50.998;5.864;2022-11-20T05:16:25;100673.00;;;2.51;83.73
48204;BME280;33994;50.998;5.864;2022-11-20T05:19:10;100668.59;;;2.47;83.45
48204;BME280;33994;50.998;5.864;2022-11-20T05:21:56;100668.56;;;2.44;83.43
48204;BME280;33994;50.998;5.864;2022-11-20T05:24:42;100666.88;;;2.46;83.64
48204;BME280;33994;50.998;5.864;2022-11-20T05:27:28;100653.19;;;2.52;83.39
48204;BME280;33994;50.998;5.864;2022-11-20T05:30:14;100649.72;;;2.50;83.55
48204;BME280;33994;50.998;5.864;2022-11-20T05:33:00;100647.13;;;2.48;83.99
48204;BME280;33994;50.998;5.864;2022-11-20T05:35:46;100648.84;;;2.49;83.83
48204;BME280;33994;50.998;5.864;2022-11-20T05:38:32;100648.94;;;2.55;83.99
48204;BME280;33994;50.998;5.864;2022-11-20T05:41:20;100650.63;;;2.53;83.83
48204;BME280;33994;50.998;5.864;2022-11-20T05:44:09;100644.59;;;2.54;84.14
48204;BME280;33994;50.998;5.864;2022-11-20T05:46:55;100649.88;;;2.62;84.08
48204;BME280;33994;50.998;5.864;2022-11-20T05:49:40;100650.81;;;2.65;84.53
48204;BME280;33994;50.998;5.864;2022-11-20T05:52:28;100655.19;;;2.71;84.58
48204;BME280;33994;50.998;5.864;2022-11-20T05:55:14;100652.63;;;2.73;84.48
48204;BME280;33994;50.998;5.864;2022-11-20T05:57:59;100657.78;;;2.73;84.56
48204;BME280;33994;50.998;5.864;2022-11-20T06:00:46;100659.56;;;2.77;84.59
48204;BME280;33994;50.998;5.864;2022-11-20T06:03:32;100661.25;;;2.73;84.72
48204;BME280;33994;50.998;5.864;2022-11-20T06:06:18;100668.13;;;2.71;84.68
48204;BME280;33994;50.998;5.864;2022-11-20T06:09:04;100658.59;;;2.70;84.77
48204;BME280;33994;50.998;5.864;2022-11-20T06:11:49;100668.94;;;2.70;85.02
48204;BME280;33994;50.998;5.864;2022-11-20T06:14:35;100668.13;;;2.71;85.21
48204;BME280;33994;50.998;5.864;2022-11-20T06:17:21;100669.78;;;2.69;85.63
48204;BME280;33994;50.998;5.864;2022-11-20T06:20:08;100679.31;;;2.72;85.77
48204;BME280;33994;50.998;5.864;2022-11-20T06:22:53;100675.88;;;2.73;85.80
48204;BME280;33994;50.998;5.864;2022-11-20T06:25:39;100669.91;;;2.77;86.16
48204;BME280;33994;50.998;5.864;2022-11-20T06:28:24;100673.28;;;2.73;86.45
48204;BME280;33994;50.998;5.864;2022-11-20T06:31:11;100666.41;;;2.72;86.87
48204;BME280;33994;50.998;5.864;2022-11-20T06:33:59;100681.91;;;2.73;87.10
48204;BME280;33994;50.998;5.864;2022-11-20T06:36:44;100683.63;;;2.73;87.14
48204;BME280;33994;50.998;5.864;2022-11-20T06:39:30;100680.22;;;2.77;87.35
48204;BME280;33994;50.998;5.864;2022-11-20T06:42:15;100680.28;;;2.80;87.65
48204;BME280;33994;50.998;5.864;2022-11-20T06:45:01;100674.25;;;2.81;87.79
48204;BME280;33994;50.998;5.864;2022-11-20T06:47:46;100678.63;;;2.85;88.15
48204;BME280;33994;50.998;5.864;2022-11-20T06:50:33;100682.97;;;2.87;88.43
48204;BME280;33994;50.998;5.864;2022-11-20T06:53:18;100675.28;;;2.92;88.96
48204;BME280;33994;50.998;5.864;2022-11-20T06:56:05;100680.56;;;3.00;89.08
48204;BME280;33994;50.998;5.864;2022-11-20T06:58:51;100677.09;;;2.99;89.23
48204;BME280;33994;50.998;5.864;2022-11-20T07:01:36;100681.47;;;3.02;89.29
48204;BME280;33994;50.998;5.864;2022-11-20T07:04:21;100681.47;;;3.03;89.36
48204;BME280;33994;50.998;5.864;2022-11-20T07:07:08;100670.28;;;3.03;89.63
48204;BME280;33994;50.998;5.864;2022-11-20T07:09:54;100677.22;;;3.05;89.77
48204;BME280;33994;50.998;5.864;2022-11-20T07:12:40;100670.31;;;3.07;89.79
48204;BME280;33994;50.998;5.864;2022-11-20T07:15:25;100672.91;;;3.07;90.15
48204;BME280;33994;50.998;5.864;2022-11-20T07:18:10;100674.69;;;3.10;89.94
48204;BME280;33994;50.998;5.864;2022-11-20T07:20:59;100670.31;;;3.07;90.08
48204;BME280;33994;50.998;5.864;2022-11-20T07:23:46;100674.72;;;3.13;90.31
48204;BME280;33994;50.998;5.864;2022-11-20T07:26:32;100665.22;;;3.12;90.32
48204;BME280;33994;50.998;5.864;2022-11-20T07:29:17;100671.28;;;3.12;90.60
48204;BME280;33994;50.998;5.864;2022-11-20T07:32:04;100663.53;;;3.12;90.60
48204;BME280;33994;50.998;5.864;2022-11-20T07:34:49;100658.34;;;3.14;90.72
48204;BME280;33994;50.998;5.864;2022-11-20T07:37:35;100661.81;;;3.14;90.64
48204;BME280;33994;50.998;5.864;2022-11-20T07:40:22;100663.53;;;3.12;90.50
48204;BME280;33994;50.998;5.864;2022-11-20T07:43:07;100664.34;;;3.08;90.76
48204;BME280;33994;50.998;5.864;2022-11-20T07:45:54;100662.53;;;3.04;90.72
48204;BME280;33994;50.998;5.864;2022-11-20T07:48:40;100659.94;;;3.01;91.07
48204;BME280;33994;50.998;5.864;2022-11-20T07:51:25;100665.97;;;3.02;91.42
48204;BME280;33994;50.998;5.864;2022-11-20T07:54:11;100665.16;;;3.07;91.74
48204;BME280;33994;50.998;5.864;2022-11-20T07:56:58;100668.69;;;3.12;91.59
48204;BME280;33994;50.998;5.864;2022-11-20T07:59:43;100664.44;;;3.16;91.59
48204;BME280;33994;50.998;5.864;2022-11-20T08:02:30;100666.16;;;3.19;91.61
48204;BME280;33994;50.998;5.864;2022-11-20T08:05:15;100674.78;;;3.19;91.33
48204;BME280;33994;50.998;5.864;2022-11-20T08:08:00;100671.28;;;3.15;91.43
48204;BME280;33994;50.998;5.864;2022-11-20T08:10:46;100670.41;;;3.13;91.27
48204;BME280;33994;50.998;5.864;2022-11-20T08:13:32;100674.72;;;3.14;91.35
48204;BME280;33994;50.998;5.864;2022-11-20T08:16:35;100669.50;;;3.10;91.23
48204;BME280;33994;50.998;5.864;2022-11-20T08:19:21;100663.44;;;3.06;91.27
48204;BME280;33994;50.998;5.864;2022-11-20T08:22:07;100661.66;;;3.02;91.31
48204;BME280;33994;50.998;5.864;2022-11-20T08:24:52;100656.50;;;3.02;91.15
48204;BME280;33994;50.998;5.864;2022-11-20T08:27:37;100657.34;;;3.04;91.03
48204;BME280;33994;50.998;5.864;2022-11-20T08:30:24;100655.69;;;3.08;90.75
48204;BME280;33994;50.998;5.864;2022-11-20T08:33:09;100658.31;;;3.09;90.60
48204;BME280;33994;50.998;5.864;2022-11-20T08:35:58;100660.84;;;3.06;90.51
48204;BME280;33994;50.998;5.864;2022-11-20T08:38:47;100651.38;;;3.07;90.63
48204;BME280;33994;50.998;5.864;2022-11-20T08:41:33;100654.88;;;3.10;90.87
48204;BME280;33994;50.998;5.864;2022-11-20T08:44:19;100647.16;;;3.15;90.87
48204;BME280;33994;50.998;5.864;2022-11-20T08:47:05;100631.69;;;3.18;90.71
48204;BME280;33994;50.998;5.864;2022-11-20T08:49:51;100644.72;;;3.26;90.58
48204;BME280;33994;50.998;5.864;2022-11-20T08:52:36;100656.81;;;3.28;90.44
48204;BME280;33994;50.998;5.864;2022-11-20T08:55:22;100649.13;;;3.33;90.64
48204;BME280;33994;50.998;5.864;2022-11-20T08:58:07;100650.06;;;3.41;90.34
48204;BME280;33994;50.998;5.864;2022-11-20T09:00:52;100656.09;;;3.42;90.20
48204;BME280;33994;50.998;5.864;2022-11-20T09:03:39;100646.63;;;3.40;90.22
48204;BME280;33994;50.998;5.864;2022-11-20T09:06:26;100658.78;;;3.49;90.34
48204;BME280;33994;50.998;5.864;2022-11-20T09:09:11;100657.13;;;3.54;90.19
48204;BME280;33994;50.998;5.864;2022-11-20T09:11:57;100652.78;;;3.52;90.01
48204;BME280;33994;50.998;5.864;2022-11-20T09:14:42;100642.44;;;3.53;90.11
48204;BME280;33994;50.998;5.864;2022-11-20T09:17:28;100637.31;;;3.55;90.06
48204;BME280;33994;50.998;5.864;2022-11-20T09:20:15;100635.56;;;3.55;90.17
48204;BME280;33994;50.998;5.864;2022-11-20T09:23:01;100638.16;;;3.55;90.30
48204;BME280;33994;50.998;5.864;2022-11-20T09:25:46;100645.09;;;3.59;90.24
48204;BME280;33994;50.998;5.864;2022-11-20T09:28:32;100631.28;;;3.57;90.15
48204;BME280;33994;50.998;5.864;2022-11-20T09:31:22;100624.44;;;3.62;90.36
48204;BME280;33994;50.998;5.864;2022-11-20T09:34:08;100619.31;;;3.66;90.17
48204;BME280;33994;50.998;5.864;2022-11-20T09:36:55;100612.41;;;3.68;90.03
48204;BME280;33994;50.998;5.864;2022-11-20T09:39:41;100610.72;;;3.71;90.11
48204;BME280;33994;50.998;5.864;2022-11-20T09:42:34;100607.31;;;3.74;90.09
48204;BME280;33994;50.998;5.864;2022-11-20T09:45:30;100609.13;;;3.81;89.90
48204;BME280;33994;50.998;5.864;2022-11-20T09:48:32;100610.84;;;3.82;89.68
48204;BME280;33994;50.998;5.864;2022-11-20T09:51:28;100600.53;;;3.85;89.60
48204;BME280;33994;50.998;5.864;2022-11-20T09:54:20;100599.66;;;3.87;89.60
48204;BME280;33994;50.998;5.864;2022-11-20T09:57:11;100599.63;;;3.84;89.57
48204;BME280;33994;50.998;5.864;2022-11-20T10:00:00;100593.66;;;3.88;89.65
48204;BME280;33994;50.998;5.864;2022-11-20T10:03:01;100589.34;;;3.91;89.46
48204;BME280;33994;50.998;5.864;2022-11-20T10:05:49;100588.53;;;3.96;89.51
48204;BME280;33994;50.998;5.864;2022-11-20T10:08:40;100595.44;;;3.97;89.49
48204;BME280;33994;50.998;5.864;2022-11-20T10:11:33;100590.31;;;4.00;89.56
48204;BME280;33994;50.998;5.864;2022-11-20T10:14:29;100582.53;;;4.03;90.02
48204;BME280;33994;50.998;5.864;2022-11-20T10:17:26;100571.34;;;4.07;89.93
48204;BME280;33994;50.998;5.864;2022-11-20T10:20:19;100573.97;;;4.10;90.03
48204;BME280;33994;50.998;5.864;2022-11-20T10:23:29;100564.53;;;4.16;89.99
48204;BME280;33994;50.998;5.864;2022-11-20T10:26:22;100565.44;;;4.21;90.16
48204;BME280;33994;50.998;5.864;2022-11-20T10:29:14;100555.97;;;4.24;89.96
48204;BME280;33994;50.998;5.864;2022-11-20T10:32:02;100549.09;;;4.28;89.85
48204;BME280;33994;50.998;5.864;2022-11-20T10:34:52;100546.53;;;4.31;89.89
48204;BME280;33994;50.998;5.864;2022-11-20T10:37:42;100543.13;;;4.38;89.94
48204;BME280;33994;50.998;5.864;2022-11-20T10:40:33;100528.44;;;4.40;89.76
48204;BME280;33994;50.998;5.864;2022-11-20T10:43:24;100526.72;;;4.45;89.99
48204;BME280;33994;50.998;5.864;2022-11-20T10:46:17;100519.88;;;4.50;89.76
48204;BME280;33994;50.998;5.864;2022-11-20T10:49:05;100521.63;;;4.57;89.78
48204;BME280;33994;50.998;5.864;2022-11-20T10:52:00;100518.19;;;4.58;89.81
48204;BME280;33994;50.998;5.864;2022-11-20T10:54:55;100511.28;;;4.63;90.08
48204;BME280;33994;50.998;5.864;2022-11-20T10:57:52;100512.13;;;4.64;90.41
48204;BME280;33994;50.998;5.864;2022-11-20T11:00:40;100501.81;;;4.66;90.28
48204;BME280;33994;50.998;5.864;2022-11-20T11:03:28;100497.47;;;4.68;90.40
48204;BME280;33994;50.998;5.864;2022-11-20T11:06:22;100494.91;;;4.69;90.64
48204;BME280;33994;50.998;5.864;2022-11-20T11:09:15;100477.63;;;4.71;90.72
48204;BME280;33994;50.998;5.864;2022-11-20T11:12:01;100478.50;;;4.75;90.66
48204;BME280;33994;50.998;5.864;2022-11-20T11:14:48;100474.22;;;4.81;90.72
48204;BME280;33994;50.998;5.864;2022-11-20T11:17:34;100467.31;;;4.85;90.78
48204;BME280;33994;50.998;5.864;2022-11-20T11:20:22;100464.75;;;4.88;91.07
48204;BME280;33994;50.998;5.864;2022-11-20T11:23:26;100450.97;;;4.92;91.48
48204;BME280;33994;50.998;5.864;2022-11-20T11:26:20;100450.94;;;4.95;91.41
48204;BME280;33994;50.998;5.864;2022-11-20T11:29:17;100444.06;;;5.00;91.71
48204;BME280;33994;50.998;5.864;2022-11-20T11:32:04;100440.59;;;5.06;91.92
48204;BME280;33994;50.998;5.864;2022-11-20T11:35:01;100432.84;;;5.09;92.25
48204;BME280;33994;50.998;5.864;2022-11-20T11:37:48;100427.66;;;5.17;92.05
48204;BME280;33994;50.998;5.864;2022-11-20T11:40:36;100431.09;;;5.22;92.62
48204;BME280;33994;50.998;5.864;2022-11-20T11:43:24;100425.94;;;5.26;92.27
48204;BME280;33994;50.998;5.864;2022-11-20T11:46:30;100423.34;;;5.31;92.52
48204;BME280;33994;50.998;5.864;2022-11-20T11:49:18;100408.66;;;5.34;92.82
48204;BME280;33994;50.998;5.864;2022-11-20T11:52:09;100404.34;;;5.38;93.22
48204;BME280;33994;50.998;5.864;2022-11-20T11:55:01;100400.88;;;5.42;93.30
48204;BME280;33994;50.998;5.864;2022-11-20T11:57:52;100405.19;;;5.46;93.19
48204;BME280;33994;50.998;5.864;2022-11-20T12:00:45;100405.19;;;5.49;92.93
48204;BME280;33994;50.998;5.864;2022-11-20T12:03:36;100392.22;;;5.54;93.20
48204;BME280;33994;50.998;5.864;2022-11-20T12:06:23;100399.13;;;5.56;93.57
48204;BME280;33994;50.998;5.864;2022-11-20T12:09:11;100386.16;;;5.58;93.19
48204;BME280;33994;50.998;5.864;2022-11-20T12:12:05;100387.88;;;5.57;93.40
48204;BME280;33994;50.998;5.864;2022-11-20T12:14:56;100381.81;;;5.63;93.70
48204;BME280;33994;50.998;5.864;2022-11-20T12:17:42;100362.78;;;5.69;93.83
48204;BME280;33994;50.998;5.864;2022-11-20T12:20:34;100365.38;;;5.73;93.75
48204;BME280;33994;50.998;5.864;2022-11-20T12:23:27;100354.13;;;5.76;93.73
48204;BME280;33994;50.998;5.864;2022-11-20T12:26:19;100348.91;;;5.79;93.59
48204;BME280;33994;50.998;5.864;2022-11-20T12:29:18;100347.19;;;5.84;93.42
48204;BME280;33994;50.998;5.864;2022-11-20T12:35:38;100332.44;;;5.95;93.91
48204;BME280;33994;50.998;5.864;2022-11-20T12:38:45;100327.22;;;6.00;94.02
48204;BME280;33994;50.998;5.864;2022-11-20T12:41:48;100320.25;;;6.05;93.72
48204;BME280;33994;50.998;5.864;2022-11-20T12:45:07;100323.69;;;6.12;93.98
48204;BME280;33994;50.998;5.864;2022-11-20T12:48:05;100309.81;;;6.16;94.16
48204;BME280;33994;50.998;5.864;2022-11-20T12:51:14;100302.88;;;6.22;94.29
48204;BME280;33994;50.998;5.864;2022-11-20T12:54:33;100291.56;;;6.28;94.49
48204;BME280;33994;50.998;5.864;2022-11-20T12:57:26;100288.09;;;6.32;94.26
48204;BME280;33994;50.998;5.864;2022-11-20T13:00:18;100282.00;;;6.38;94.52
48204;BME280;33994;50.998;5.864;2022-11-20T13:03:37;100283.69;;;6.43;94.58
48204;BME280;33994;50.998;5.864;2022-11-20T13:06:25;100275.84;;;6.52;94.17
48204;BME280;33994;50.998;5.864;2022-11-20T13:09:12;100281.00;;;6.60;94.52
48204;BME280;33994;50.998;5.864;2022-11-20T13:12:04;100274.88;;;6.66;94.59
48204;BME280;33994;50.998;5.864;2022-11-20T13:14:55;100267.03;;;6.72;94.47
48204;BME280;33994;50.998;5.864;2022-11-20T13:17:48;100262.66;;;6.77;94.24
48204;BME280;33994;50.998;5.864;2022-11-20T13:20:41;100251.34;;;6.81;94.44
48204;BME280;33994;50.998;5.864;2022-11-20T13:23:28;100247.84;;;6.85;94.15
48204;BME280;33994;50.998;5.864;2022-11-20T13:26:19;100236.53;;;6.89;94.42
48204;BME280;33994;50.998;5.864;2022-11-20T13:29:09;100240.91;;;6.90;94.21
48204;BME280;33994;50.998;5.864;2022-11-20T13:32:06;100243.44;;;6.95;94.24
48204;BME280;33994;50.998;5.864;2022-11-20T13:34:55;100233.00;;;6.99;94.02
48204;BME280;33994;50.998;5.864;2022-11-20T13:37:41;100219.13;;;7.02;93.85
48204;BME280;33994;50.998;5.864;2022-11-20T13:40:27;100212.16;;;7.05;93.76
48204;BME280;33994;50.998;5.864;2022-11-20T13:43:22;100212.09;;;7.09;93.40
48204;BME280;33994;50.998;5.864;2022-11-20T13:46:09;100201.63;;;7.15;93.10
48204;BME280;33994;50.998;5.864;2022-11-20T13:48:55;100195.53;;;7.19;92.79
48204;BME280;33994;50.998;5.864;2022-11-20T13:51:45;100190.28;;;7.22;92.05
48204;BME280;33994;50.998;5.864;2022-11-20T13:54:43;100185.91;;;7.24;91.20
48204;BME280;33994;50.998;5.864;2022-11-20T14:00:58;100176.38;;;7.26;90.21
48204;BME280;33994;50.998;5.864;2022-11-20T14:03:46;100172.91;;;7.25;89.97
48204;BME280;33994;50.998;5.864;2022-11-20T14:06:38;100170.31;;;7.25;89.44
48204;BME280;33994;50.998;5.864;2022-11-20T14:09:28;100167.69;;;7.27;89.16
48204;BME280;33994;50.998;5.864;2022-11-20T14:12:16;100162.50;;;7.24;88.38
48204;BME280;33994;50.998;5.864;2022-11-20T14:15:03;100168.63;;;7.20;87.73
48204;BME280;33994;50.998;5.864;2022-11-20T14:17:48;100158.28;;;7.15;87.71
48204;BME280;33994;50.998;5.864;2022-11-20T14:20:34;100161.78;;;7.11;87.51
48204;BME280;33994;50.998;5.864;2022-11-20T14:23:24;100144.53;;;7.04;87.62
48204;BME280;33994;50.998;5.864;2022-11-20T14:26:13;100145.47;;;7.01;87.90
48204;BME280;33994;50.998;5.864;2022-11-20T14:29:00;100142.03;;;6.96;88.38
48204;BME280;33994;50.998;5.864;2022-11-20T14:31:46;100140.38;;;6.89;88.57
48204;BME280;33994;50.998;5.864;2022-11-20T14:34:35;100135.25;;;6.83;89.30
48204;BME280;33994;50.998;5.864;2022-11-20T14:37:24;100129.22;;;6.79;90.16
48204;BME280;33994;50.998;5.864;2022-11-20T14:40:26;100122.34;;;6.75;91.10
48204;BME280;33994;50.998;5.864;2022-11-20T14:43:22;100114.59;;;6.71;92.00
48204;BME280;33994;50.998;5.864;2022-11-20T14:46:09;100112.00;;;6.71;92.82
48204;BME280;33994;50.998;5.864;2022-11-20T14:48:56;100106.81;;;6.71;92.88
48204;BME280;33994;50.998;5.864;2022-11-20T14:51:43;100095.56;;;6.66;93.35
48204;BME280;33994;50.998;5.864;2022-11-20T14:54:30;100084.25;;;6.70;93.69
48204;BME280;33994;50.998;5.864;2022-11-20T14:57:24;100079.81;;;6.82;94.14
48204;BME280;33994;50.998;5.864;2022-11-20T15:00:21;100067.75;;;6.74;94.16